sensor_id;sensor_type;location;lat;lon;timestamp;temperature;humidity
10231;DHT22;62604;49.432;8.680;2022-12-20T00:54:25;6.80;99.90
10231;DHT22;62604;49.432;8.680;2022-12-20T00:56:52;6.70;99.90
10231;DHT22;62604;49.432;8.680;2022-12-20T00:59:24;6.90;99.90
10231;DHT22;62604;49.432;8.680;2022-12-20T01:01:52;6.90;99.90
10231;DHT22;62604;49.432;8.680;2022-12-20T01:04:20;6.80;99.90
10231;DHT22;62604;49.432;8.680;2022-12-20T01:06:46;6.80;99.90
10231;DHT22;62604;49.432;8.680;2022-12-20T01:09:14;6.90;99.90
10231;DHT22;62604;49.432;8.680;2022-12-20T01:11:44;6.90;99.90
10231;DHT22;62604;49.432;8.680;2022-12-20T01:14:15;6.90;99.90
10231;DHT22;62604;49.432;8.680;2022-12-20T01:16:44;6.80;99.90
10231;DHT22;62604;49.432;8.680;2022-12-20T01:19:13;7.10;99.90
10231;DHT22;62604;49.432;8.680;2022-12-20T01:21:44;7.10;99.90
10231;DHT22;62604;49.432;8.680;2022-12-20T01:24:12;7.00;99.90
10231;DHT22;62604;49.432;8.680;2022-12-20T01:26:40;6.90;99.90
10231;DHT22;62604;49.432;8.680;2022-12-20T01:29:09;6.70;99.90
10231;DHT22;62604;49.432;8.680;2022-12-20T01:31:36;6.70;99.90
10231;DHT22;62604;49.432;8.680;2022-12-20T01:34:04;6.70;99.90
10231;DHT22;62604;49.432;8.680;2022-12-20T01:36:34;6.70;99.90
10231;DHT22;62604;49.432;8.680;2022-12-20T01:39:06;7.00;99.90
10231;DHT22;62604;49.432;8.680;2022-12-20T01:41:35;7.30;99.90
10231;DHT22;62604;49.432;8.680;2022-12-20T01:44:47;7.70;99.90
10231;DHT22;62604;49.432;8.680;2022-12-20T01:46:54;7.80;99.90
10231;DHT22;62604;49.432;8.680;2022-12-20T01:49:29;7.60;99.90
10231;DHT22;62604;49.432;8.680;2022-12-20T01:52:04;7.50;99.90
10231;DHT22;62604;49.432;8.680;2022-12-20T01:54:36;7.40;99.90
10231;DHT22;62604;49.432;8.680;2022-12-20T01:57:10;7.30;99.90
10231;DHT22;62604;49.432;8.680;2022-12-20T01:59:40;7.20;99.90
10231;DHT22;62604;49.432;8.680;2022-12-20T02:02:11;7.20;99.90
10231;DHT22;62604;49.432;8.680;2022-12-20T02:04:38;7.50;99.90
10231;DHT22;62604;49.432;8.680;2022-12-20T02:07:07;7.50;99.90
10231;DHT22;62604;49.432;8.680;2022-12-20T02:09:36;7.50;99.90
10231;DHT22;62604;49.432;8.680;2022-12-20T02:12:09;7.50;99.90
10231;DHT22;62604;49.432;8.680;2022-12-20T02:14:47;7.40;99.90
10231;DHT22;62604;49.432;8.680;2022-12-20T02:17:30;7.50;99.90
10231;DHT22;62604;49.432;8.680;2022-12-20T02:23:49;7.50;99.90
10231;DHT22;62604;49.432;8.680;2022-12-20T02:26:44;7.70;99.90
10231;DHT22;62604;49.432;8.680;2022-12-20T02:29:26;7.90;99.90
10231;DHT22;62604;49.432;8.680;2022-12-20T02:32:05;8.00;99.90
10231;DHT22;62604;49.432;8.680;2022-12-20T02:34:35;8.10;99.90
10231;DHT22;62604;49.432;8.680;2022-12-20T02:37:04;8.00;99.90
10231;DHT22;62604;49.432;8.680;2022-12-20T02:39:33;8.00;99.90
10231;DHT22;62604;49.432;8.680;2022-12-20T02:42:04;8.10;99.90
10231;DHT22;62604;49.432;8.680;2022-12-20T02:44:32;8.20;99.90
10231;DHT22;62604;49.432;8.680;2022-12-20T02:47:23;8.10;99.90
10231;DHT22;62604;49.432;8.680;2022-12-20T02:49:54;8.30;99.90
10231;DHT22;62604;49.432;8.680;2022-12-20T02:52:23;8.20;99.90
10231;DHT22;62604;49.432;8.680;2022-12-20T02:54:53;8.30;99.90
10231;DHT22;62604;49.432;8.680;2022-12-20T02:57:27;8.40;99.90
10231;DHT22;62604;49.432;8.680;2022-12-20T03:00:01;8.40;99.90
10231;DHT22;62604;49.432;8.680;2022-12-20T03:02:31;8.40;99.90
10231;DHT22;62604;49.432;8.680;2022-12-20T03:05:22;8.50;99.90
10231;DHT22;62604;49.432;8.680;2022-12-20T03:07:51;8.40;99.90
10231;DHT22;62604;49.432;8.680;2022-12-20T03:10:18;8.30;99.90
10231;DHT22;62604;49.432;8.680;2022-12-20T03:12:47;8.30;99.90
10231;DHT22;62604;49.432;8.680;2022-12-20T03:15:14;8.30;99.90
10231;DHT22;62604;49.432;8.680;2022-12-20T03:17:44;8.30;99.90
10231;DHT22;62604;49.432;8.680;2022-12-20T03:20:11;8.40;99.90
10231;DHT22;62604;49.432;8.680;2022-12-20T03:22:39;8.40;99.90
10231;DHT22;62604;49.432;8.680;2022-12-20T03:25:07;8.40;99.90
10231;DHT22;62604;49.432;8.680;2022-12-20T03:27:34;8.40;99.90
10231;DHT22;62604;49.432;8.680;2022-12-20T03:30:03;8.40;99.90
10231;DHT22;62604;49.432;8.680;2022-12-20T03:32:32;8.40;99.90
10231;DHT22;62604;49.432;8.680;2022-12-20T03:35:01;8.30;99.90
10231;DHT22;62604;49.432;8.680;2022-12-20T03:37:30;8.20;99.90
10231;DHT22;62604;49.432;8.680;2022-12-20T03:39:58;8.10;99.90
10231;DHT22;62604;49.432;8.680;2022-12-20T03:42:26;7.80;99.90
10231;DHT22;62604;49.432;8.680;2022-12-20T03:44:53;7.60;99.90
10231;DHT22;62604;49.432;8.680;2022-12-20T03:47:20;7.40;99.90
10231;DHT22;62604;49.432;8.680;2022-12-20T03:49:48;7.30;99.90
10231;DHT22;62604;49.432;8.680;2022-12-20T03:52:17;7.20;99.90
10231;DHT22;62604;49.432;8.680;2022-12-20T03:54:46;7.10;99.90
10231;DHT22;62604;49.432;8.680;2022-12-20T03:57:13;7.00;99.90
10231;DHT22;62604;49.432;8.680;2022-12-20T03:59:41;7.00;99.90
10231;DHT22;62604;49.432;8.680;2022-12-20T04:02:09;7.00;99.90
10231;DHT22;62604;49.432;8.680;2022-12-20T04:04:37;7.00;99.90
10231;DHT22;62604;49.432;8.680;2022-12-20T04:07:05;7.70;99.90
10231;DHT22;62604;49.432;8.680;2022-12-20T04:09:35;7.90;99.90
10231;DHT22;62604;49.432;8.680;2022-12-20T04:12:04;7.80;99.90
10231;DHT22;62604;49.432;8.680;2022-12-20T04:14:31;8.30;99.90
10231;DHT22;62604;49.432;8.680;2022-12-20T04:16:59;8.20;99.90
10231;DHT22;62604;49.432;8.680;2022-12-20T04:19:25;8.20;99.90
10231;DHT22;62604;49.432;8.680;2022-12-20T04:21:54;8.60;99.90
10231;DHT22;62604;49.432;8.680;2022-12-20T04:24:23;8.70;99.90
10231;DHT22;62604;49.432;8.680;2022-12-20T04:26:52;8.50;99.90
10231;DHT22;62604;49.432;8.680;2022-12-20T04:29:19;8.40;99.90
10231;DHT22;62604;49.432;8.680;2022-12-20T04:31:50;8.30;99.90
10231;DHT22;62604;49.432;8.680;2022-12-20T04:34:19;8.40;99.90
10231;DHT22;62604;49.432;8.680;2022-12-20T04:36:46;8.40;99.90
10231;DHT22;62604;49.432;8.680;2022-12-20T04:39:13;8.50;99.90
10231;DHT22;62604;49.432;8.680;2022-12-20T04:41:40;8.50;99.90
10231;DHT22;62604;49.432;8.680;2022-12-20T04:44:09;8.40;99.90
10231;DHT22;62604;49.432;8.680;2022-12-20T04:46:36;8.50;99.90
10231;DHT22;62604;49.432;8.680;2022-12-20T04:49:03;8.70;99.90
10231;DHT22;62604;49.432;8.680;2022-12-20T04:51:30;8.60;99.90
10231;DHT22;62604;49.432;8.680;2022-12-20T04:53:57;8.50;99.90
10231;DHT22;62604;49.432;8.680;2022-12-20T04:56:25;8.50;99.90
10231;DHT22;62604;49.432;8.680;2022-12-20T04:58:53;8.70;99.90
10231;DHT22;62604;49.432;8.680;2022-12-20T05:01:23;8.70;99.90
10231;DHT22;62604;49.432;8.680;2022-12-20T05:03:50;8.80;99.90
10231;DHT22;62604;49.432;8.680;2022-12-20T05:06:17;8.90;99.90
10231;DHT22;62604;49.432;8.680;2022-12-20T05:08:44;9.00;99.90
10231;DHT22;62604;49.432;8.680;2022-12-20T05:11:12;9.00;99.90
10231;DHT22;62604;49.432;8.680;2022-12-20T05:13:40;9.00;99.90
10231;DHT22;62604;49.432;8.680;2022-12-20T05:16:07;8.80;99.90
10231;DHT22;62604;49.432;8.680;2022-12-20T05:18:35;8.60;99.90
10231;DHT22;62604;49.432;8.680;2022-12-20T05:21:03;8.50;99.90
10231;DHT22;62604;49.432;8.680;2022-12-20T05:24:02;8.30;99.90
10231;DHT22;62604;49.432;8.680;2022-12-20T05:26:46;8.20;99.90
10231;DHT22;62604;49.432;8.680;2022-12-20T05:29:13;8.00;99.90
10231;DHT22;62604;49.432;8.680;2022-12-20T05:31:41;7.90;99.90
10231;DHT22;62604;49.432;8.680;2022-12-20T05:34:09;7.60;99.90
10231;DHT22;62604;49.432;8.680;2022-12-20T05:36:36;7.50;99.90
10231;DHT22;62604;49.432;8.680;2022-12-20T05:39:03;7.30;99.90
10231;DHT22;62604;49.432;8.680;2022-12-20T05:41:30;7.20;99.90
10231;DHT22;62604;49.432;8.680;2022-12-20T05:43:57;7.00;99.90
10231;DHT22;62604;49.432;8.680;2022-12-20T05:46:24;7.00;99.90
10231;DHT22;62604;49.432;8.680;2022-12-20T05:48:51;6.90;99.90
10231;DHT22;62604;49.432;8.680;2022-12-20T05:51:20;6.90;99.90
10231;DHT22;62604;49.432;8.680;2022-12-20T05:53:47;6.80;99.90
10231;DHT22;62604;49.432;8.680;2022-12-20T05:56:14;6.80;99.90
10231;DHT22;62604;49.432;8.680;2022-12-20T05:58:40;6.70;99.90
10231;DHT22;62604;49.432;8.680;2022-12-20T06:01:08;6.70;99.90
10231;DHT22;62604;49.432;8.680;2022-12-20T06:03:36;6.60;99.90
10231;DHT22;62604;49.432;8.680;2022-12-20T06:06:03;6.60;99.90
10231;DHT22;62604;49.432;8.680;2022-12-20T06:08:32;6.60;99.90
10231;DHT22;62604;49.432;8.680;2022-12-20T06:10:59;6.50;99.90
10231;DHT22;62604;49.432;8.680;2022-12-20T06:13:27;6.40;99.90
10231;DHT22;62604;49.432;8.680;2022-12-20T06:15:54;6.30;99.90
10231;DHT22;62604;49.432;8.680;2022-12-20T06:18:21;6.30;99.90
10231;DHT22;62604;49.432;8.680;2022-12-20T06:20:49;6.30;99.90
10231;DHT22;62604;49.432;8.680;2022-12-20T06:23:17;6.20;99.90
10231;DHT22;62604;49.432;8.680;2022-12-20T06:25:46;6.20;99.90
10231;DHT22;62604;49.432;8.680;2022-12-20T06:28:14;6.10;99.90
10231;DHT22;62604;49.432;8.680;2022-12-20T06:30:51;6.10;99.90
10231;DHT22;62604;49.432;8.680;2022-12-20T06:33:18;6.10;99.90
10231;DHT22;62604;49.432;8.680;2022-12-20T06:35:45;6.10;99.90
10231;DHT22;62604;49.432;8.680;2022-12-20T06:38:12;6.00;99.90
10231;DHT22;62604;49.432;8.680;2022-12-20T06:40:38;5.90;99.90
10231;DHT22;62604;49.432;8.680;2022-12-20T06:43:07;5.90;99.90
10231;DHT22;62604;49.432;8.680;2022-12-20T06:45:34;5.90;99.90
10231;DHT22;62604;49.432;8.680;2022-12-20T06:48:01;5.90;99.90
10231;DHT22;62604;49.432;8.680;2022-12-20T06:50:28;5.80;99.90
10231;DHT22;62604;49.432;8.680;2022-12-20T06:52:55;5.80;99.90
10231;DHT22;62604;49.432;8.680;2022-12-20T06:55:22;5.80;99.90
10231;DHT22;62604;49.432;8.680;2022-12-20T06:57:48;5.80;99.90
10231;DHT22;62604;49.432;8.680;2022-12-20T07:00:18;5.80;99.90
10231;DHT22;62604;49.432;8.680;2022-12-20T07:02:45;5.80;99.90
10231;DHT22;62604;49.432;8.680;2022-12-20T07:05:12;5.80;99.90
10231;DHT22;62604;49.432;8.680;2022-12-20T07:07:39;5.70;99.90
10231;DHT22;62604;49.432;8.680;2022-12-20T07:10:07;5.70;99.90
10231;DHT22;62604;49.432;8.680;2022-12-20T07:12:34;5.70;99.90
10231;DHT22;62604;49.432;8.680;2022-12-20T07:15:01;5.70;99.90
10231;DHT22;62604;49.432;8.680;2022-12-20T07:17:30;5.70;99.90
10231;DHT22;62604;49.432;8.680;2022-12-20T07:19:57;5.80;99.90
10231;DHT22;62604;49.432;8.680;2022-12-20T07:22:23;5.70;99.90
10231;DHT22;62604;49.432;8.680;2022-12-20T07:24:50;5.80;99.90
10231;DHT22;62604;49.432;8.680;2022-12-20T07:27:17;5.80;99.90
10231;DHT22;62604;49.432;8.680;2022-12-20T07:29:44;5.80;99.90
10231;DHT22;62604;49.432;8.680;2022-12-20T07:32:12;5.80;99.90
10231;DHT22;62604;49.432;8.680;2022-12-20T07:34:40;5.80;99.90
10231;DHT22;62604;49.432;8.680;2022-12-20T07:37:07;5.90;99.90
10231;DHT22;62604;49.432;8.680;2022-12-20T07:39:34;5.90;99.90
10231;DHT22;62604;49.432;8.680;2022-12-20T07:42:01;5.90;99.90
10231;DHT22;62604;49.432;8.680;2022-12-20T07:44:28;6.00;99.90
10231;DHT22;62604;49.432;8.680;2022-12-20T07:46:55;6.10;99.90
10231;DHT22;62604;49.432;8.680;2022-12-20T07:49:21;6.10;99.90
10231;DHT22;62604;49.432;8.680;2022-12-20T07:51:52;6.20;99.90
10231;DHT22;62604;49.432;8.680;2022-12-20T07:54:23;6.30;99.90
10231;DHT22;62604;49.432;8.680;2022-12-20T07:56:56;6.30;99.90
10231;DHT22;62604;49.432;8.680;2022-12-20T07:59:26;6.30;99.90
10231;DHT22;62604;49.432;8.680;2022-12-20T08:01:55;6.30;99.90
10231;DHT22;62604;49.432;8.680;2022-12-20T08:04:24;6.30;99.90
10231;DHT22;62604;49.432;8.680;2022-12-20T08:06:55;6.30;99.90
10231;DHT22;62604;49.432;8.680;2022-12-20T08:09:25;6.40;99.90
10231;DHT22;62604;49.432;8.680;2022-12-20T08:11:56;6.50;99.90
10231;DHT22;62604;49.432;8.680;2022-12-20T08:14:23;6.50;99.90
10231;DHT22;62604;49.432;8.680;2022-12-20T08:16:50;6.50;99.90
10231;DHT22;62604;49.432;8.680;2022-12-20T08:19:17;6.50;99.90
10231;DHT22;62604;49.432;8.680;2022-12-20T08:21:44;6.60;99.90
10231;DHT22;62604;49.432;8.680;2022-12-20T08:24:12;6.70;99.90
10231;DHT22;62604;49.432;8.680;2022-12-20T08:26:40;6.90;99.90
10231;DHT22;62604;49.432;8.680;2022-12-20T08:29:07;6.90;99.90
10231;DHT22;62604;49.432;8.680;2022-12-20T08:31:36;6.90;99.90
10231;DHT22;62604;49.432;8.680;2022-12-20T08:34:04;7.00;99.90
10231;DHT22;62604;49.432;8.680;2022-12-20T08:36:30;7.00;99.90
10231;DHT22;62604;49.432;8.680;2022-12-20T08:39:00;7.10;99.90
10231;DHT22;62604;49.432;8.680;2022-12-20T08:41:28;7.30;99.90
10231;DHT22;62604;49.432;8.680;2022-12-20T08:43:55;7.50;99.90
10231;DHT22;62604;49.432;8.680;2022-12-20T08:46:22;7.60;99.90
10231;DHT22;62604;49.432;8.680;2022-12-20T08:48:49;7.70;99.90
10231;DHT22;62604;49.432;8.680;2022-12-20T08:51:16;8.00;99.90
10231;DHT22;62604;49.432;8.680;2022-12-20T08:53:43;8.20;99.90
10231;DHT22;62604;49.432;8.680;2022-12-20T08:56:12;8.30;99.90
10231;DHT22;62604;49.432;8.680;2022-12-20T08:58:41;8.50;99.90
10231;DHT22;62604;49.432;8.680;2022-12-20T09:01:11;8.70;99.90
10231;DHT22;62604;49.432;8.680;2022-12-20T09:03:39;8.70;99.90
10231;DHT22;62604;49.432;8.680;2022-12-20T09:06:08;8.70;99.90
10231;DHT22;62604;49.432;8.680;2022-12-20T09:08:36;8.70;99.90
10231;DHT22;62604;49.432;8.680;2022-12-20T09:11:05;8.60;99.90
10231;DHT22;62604;49.432;8.680;2022-12-20T09:13:33;8.70;99.90
10231;DHT22;62604;49.432;8.680;2022-12-20T09:16:02;8.70;99.90
10231;DHT22;62604;49.432;8.680;2022-12-20T09:18:30;8.70;99.90
10231;DHT22;62604;49.432;8.680;2022-12-20T09:20:58;8.80;99.90
10231;DHT22;62604;49.432;8.680;2022-12-20T09:23:26;8.80;99.90
10231;DHT22;62604;49.432;8.680;2022-12-20T09:25:53;8.90;99.90
10231;DHT22;62604;49.432;8.680;2022-12-20T09:28:20;9.00;99.90
10231;DHT22;62604;49.432;8.680;2022-12-20T09:30:47;9.10;99.90
10231;DHT22;62604;49.432;8.680;2022-12-20T09:33:15;9.00;99.90
10231;DHT22;62604;49.432;8.680;2022-12-20T09:35:45;9.10;99.90
10231;DHT22;62604;49.432;8.680;2022-12-20T09:38:12;9.30;99.90
10231;DHT22;62604;49.432;8.680;2022-12-20T09:40:44;9.30;99.90
10231;DHT22;62604;49.432;8.680;2022-12-20T09:43:13;9.30;99.90
10231;DHT22;62604;49.432;8.680;2022-12-20T09:45:41;9.40;99.90
10231;DHT22;62604;49.432;8.680;2022-12-20T09:48:09;9.30;99.90
10231;DHT22;62604;49.432;8.680;2022-12-20T09:50:45;9.50;99.90
10231;DHT22;62604;49.432;8.680;2022-12-20T09:53:24;9.60;99.90
10231;DHT22;62604;49.432;8.680;2022-12-20T09:55:59;9.70;99.90
10231;DHT22;62604;49.432;8.680;2022-12-20T09:58:40;9.70;99.90
10231;DHT22;62604;49.432;8.680;2022-12-20T10:01:15;9.80;99.90
10231;DHT22;62604;49.432;8.680;2022-12-20T10:03:43;10.30;98.20
10231;DHT22;62604;49.432;8.680;2022-12-20T10:06:19;10.70;96.70
10231;DHT22;62604;49.432;8.680;2022-12-20T10:08:52;10.70;95.20
10231;DHT22;62604;49.432;8.680;2022-12-20T10:11:36;10.80;94.90
10231;DHT22;62604;49.432;8.680;2022-12-20T10:14:14;10.90;94.80
10231;DHT22;62604;49.432;8.680;2022-12-20T10:16:48;11.00;94.70
10231;DHT22;62604;49.432;8.680;2022-12-20T10:19:38;11.00;94.20
10231;DHT22;62604;49.432;8.680;2022-12-20T10:22:19;11.00;94.20
10231;DHT22;62604;49.432;8.680;2022-12-20T10:24:54;10.90;93.90
10231;DHT22;62604;49.432;8.680;2022-12-20T10:27:24;11.00;94.10
10231;DHT22;62604;49.432;8.680;2022-12-20T10:29:51;11.20;93.30
10231;DHT22;62604;49.432;8.680;2022-12-20T10:32:21;11.40;93.00
10231;DHT22;62604;49.432;8.680;2022-12-20T10:34:54;11.50;92.70
10231;DHT22;62604;49.432;8.680;2022-12-20T10:37:23;11.50;92.70
10231;DHT22;62604;49.432;8.680;2022-12-20T10:39:51;11.60;92.40
10231;DHT22;62604;49.432;8.680;2022-12-20T10:42:24;11.70;91.60
10231;DHT22;62604;49.432;8.680;2022-12-20T10:44:53;11.80;91.20
10231;DHT22;62604;49.432;8.680;2022-12-20T10:47:28;12.00;90.60
10231;DHT22;62604;49.432;8.680;2022-12-20T10:50:09;12.10;90.10
10231;DHT22;62604;49.432;8.680;2022-12-20T10:52:37;12.20;89.70
10231;DHT22;62604;49.432;8.680;2022-12-20T10:55:35;12.10;89.00
10231;DHT22;62604;49.432;8.680;2022-12-20T10:58:14;12.10;88.70
10231;DHT22;62604;49.432;8.680;2022-12-20T11:00:43;12.00;88.40
10231;DHT22;62604;49.432;8.680;2022-12-20T11:03:14;12.00;88.10
10231;DHT22;62604;49.432;8.680;2022-12-20T11:05:53;12.10;87.90
10231;DHT22;62604;49.432;8.680;2022-12-20T11:08:22;12.00;88.40
10231;DHT22;62604;49.432;8.680;2022-12-20T11:10:55;11.90;89.30
10231;DHT22;62604;49.432;8.680;2022-12-20T11:13:36;11.80;89.40
10231;DHT22;62604;49.432;8.680;2022-12-20T11:16:04;11.70;90.20
10231;DHT22;62604;49.432;8.680;2022-12-20T11:18:38;11.60;90.70
10231;DHT22;62604;49.432;8.680;2022-12-20T11:21:18;11.70;90.10
10231;DHT22;62604;49.432;8.680;2022-12-20T11:23:57;11.70;90.10
10231;DHT22;62604;49.432;8.680;2022-12-20T11:26:35;11.80;90.20
10231;DHT22;62604;49.432;8.680;2022-12-20T11:29:15;11.70;89.80
10231;DHT22;62604;49.432;8.680;2022-12-20T11:31:53;11.80;89.40
10231;DHT22;62604;49.432;8.680;2022-12-20T11:34:36;11.80;88.90
10231;DHT22;62604;49.432;8.680;2022-12-20T11:37:17;11.90;88.40
10231;DHT22;62604;49.432;8.680;2022-12-20T11:39:56;11.90;89.00
10231;DHT22;62604;49.432;8.680;2022-12-20T11:42:34;12.00;87.70
10231;DHT22;62604;49.432;8.680;2022-12-20T11:45:07;12.10;87.10
10231;DHT22;62604;49.432;8.680;2022-12-20T11:48:07;12.10;86.90
10231;DHT22;62604;49.432;8.680;2022-12-20T11:50:57;12.10;86.50
10231;DHT22;62604;49.432;8.680;2022-12-20T11:53:30;12.10;86.10
10231;DHT22;62604;49.432;8.680;2022-12-20T11:56:04;12.00;87.20
10231;DHT22;62604;49.432;8.680;2022-12-20T11:58:41;11.90;87.80
10231;DHT22;62604;49.432;8.680;2022-12-20T12:01:13;11.70;88.60
10231;DHT22;62604;49.432;8.680;2022-12-20T12:03:45;11.60;88.60
10231;DHT22;62604;49.432;8.680;2022-12-20T12:06:18;11.50;89.80
10231;DHT22;62604;49.432;8.680;2022-12-20T12:08:49;11.30;90.40
10231;DHT22;62604;49.432;8.680;2022-12-20T12:11:23;11.20;90.50
10231;DHT22;62604;49.432;8.680;2022-12-20T12:13:52;11.10;90.90
10231;DHT22;62604;49.432;8.680;2022-12-20T12:16:24;11.00;91.40
10231;DHT22;62604;49.432;8.680;2022-12-20T12:18:53;10.90;91.90
10231;DHT22;62604;49.432;8.680;2022-12-20T12:21:22;10.80;91.90
10231;DHT22;62604;49.432;8.680;2022-12-20T12:23:59;10.70;92.30
10231;DHT22;62604;49.432;8.680;2022-12-20T12:26:30;10.60;92.70
10231;DHT22;62604;49.432;8.680;2022-12-20T12:28:59;10.50;93.80
10231;DHT22;62604;49.432;8.680;2022-12-20T12:31:30;10.50;94.00
10231;DHT22;62604;49.432;8.680;2022-12-20T12:34:07;10.50;94.20
10231;DHT22;62604;49.432;8.680;2022-12-20T12:39:48;10.40;94.00
10231;DHT22;62604;49.432;8.680;2022-12-20T12:42:52;10.40;93.70
10231;DHT22;62604;49.432;8.680;2022-12-20T12:45:25;10.50;94.10
10231;DHT22;62604;49.432;8.680;2022-12-20T12:47:59;10.50;94.30
10231;DHT22;62604;49.432;8.680;2022-12-20T12:50:34;10.70;93.30
10231;DHT22;62604;49.432;8.680;2022-12-20T12:53:05;10.90;92.30
10231;DHT22;62604;49.432;8.680;2022-12-20T12:55:41;11.10;91.50
10231;DHT22;62604;49.432;8.680;2022-12-20T12:58:28;11.30;91.00
10231;DHT22;62604;49.432;8.680;2022-12-20T13:00:56;11.40;90.80
10231;DHT22;62604;49.432;8.680;2022-12-20T13:03:44;11.60;89.90
10231;DHT22;62604;49.432;8.680;2022-12-20T13:06:50;11.70;89.20
10231;DHT22;62604;49.432;8.680;2022-12-20T13:09:21;11.70;89.70
10231;DHT22;62604;49.432;8.680;2022-12-20T13:16:04;11.70;88.10
10231;DHT22;62604;49.432;8.680;2022-12-20T13:18:32;11.70;88.20
10231;DHT22;62604;49.432;8.680;2022-12-20T13:21:39;11.70;87.60
10231;DHT22;62604;49.432;8.680;2022-12-20T13:24:47;11.80;87.10
10231;DHT22;62604;49.432;8.680;2022-12-20T13:27:39;11.80;87.30
10231;DHT22;62604;49.432;8.680;2022-12-20T13:33:23;11.90;86.40
10231;DHT22;62604;49.432;8.680;2022-12-20T13:36:32;12.10;85.50
10231;DHT22;62604;49.432;8.680;2022-12-20T13:39:01;12.10;85.40
10231;DHT22;62604;49.432;8.680;2022-12-20T13:41:37;12.10;85.30
10231;DHT22;62604;49.432;8.680;2022-12-20T13:44:35;12.10;84.30
10231;DHT22;62604;49.432;8.680;2022-12-20T13:47:14;12.10;85.30
10231;DHT22;62604;49.432;8.680;2022-12-20T13:49:46;12.10;84.00
10231;DHT22;62604;49.432;8.680;2022-12-20T13:52:20;12.20;83.00
10231;DHT22;62604;49.432;8.680;2022-12-20T13:54:50;12.20;83.70
10231;DHT22;62604;49.432;8.680;2022-12-20T13:57:27;12.10;83.10
10231;DHT22;62604;49.432;8.680;2022-12-20T13:59:57;12.10;83.70
10231;DHT22;62604;49.432;8.680;2022-12-20T14:02:28;12.10;83.60
10231;DHT22;62604;49.432;8.680;2022-12-20T14:05:00;11.90;84.30
10231;DHT22;62604;49.432;8.680;2022-12-20T14:07:29;11.90;84.50
10231;DHT22;62604;49.432;8.680;2022-12-20T14:09:59;12.10;83.00
10231;DHT22;62604;49.432;8.680;2022-12-20T14:12:27;12.20;82.00
10231;DHT22;62604;49.432;8.680;2022-12-20T14:14:54;12.20;84.10
10231;DHT22;62604;49.432;8.680;2022-12-20T14:17:25;11.90;83.80
10231;DHT22;62604;49.432;8.680;2022-12-20T14:20:13;11.80;84.80
10231;DHT22;62604;49.432;8.680;2022-12-20T14:22:44;11.70;86.10
10231;DHT22;62604;49.432;8.680;2022-12-20T14:25:15;11.60;87.40
10231;DHT22;62604;49.432;8.680;2022-12-20T14:27:44;11.60;86.50
10231;DHT22;62604;49.432;8.680;2022-12-20T14:30:27;11.50;87.60
10231;DHT22;62604;49.432;8.680;2022-12-20T14:32:54;11.50;89.10
10231;DHT22;62604;49.432;8.680;2022-12-20T14:35:26;11.40;89.40
10231;DHT22;62604;49.432;8.680;2022-12-20T14:37:55;11.40;88.90
10231;DHT22;62604;49.432;8.680;2022-12-20T14:40:23;11.30;89.00
10231;DHT22;62604;49.432;8.680;2022-12-20T14:42:50;11.30;90.00
10231;DHT22;62604;49.432;8.680;2022-12-20T14:45:21;11.20;90.30
10231;DHT22;62604;49.432;8.680;2022-12-20T14:47:59;11.10;90.90
10231;DHT22;62604;49.432;8.680;2022-12-20T14:50:31;11.10;91.00
10231;DHT22;62604;49.432;8.680;2022-12-20T14:52:59;11.00;91.10
10231;DHT22;62604;49.432;8.680;2022-12-20T14:55:31;11.10;90.30
10231;DHT22;62604;49.432;8.680;2022-12-20T14:57:59;11.20;90.50
10231;DHT22;62604;49.432;8.680;2022-12-20T15:00:28;11.10;91.10
10231;DHT22;62604;49.432;8.680;2022-12-20T15:03:15;11.00;91.60
10231;DHT22;62604;49.432;8.680;2022-12-20T15:05:51;10.90;92.10
10231;DHT22;62604;49.432;8.680;2022-12-20T15:08:21;10.70;92.50
10231;DHT22;62604;49.432;8.680;2022-12-20T15:10:52;10.90;91.80
10231;DHT22;62604;49.432;8.680;2022-12-20T15:13:21;11.00;91.50
10231;DHT22;62604;49.432;8.680;2022-12-20T15:15:51;11.00;91.10
10231;DHT22;62604;49.432;8.680;2022-12-20T15:18:19;11.00;91.10
10231;DHT22;62604;49.432;8.680;2022-12-20T15:20:52;11.00;91.00
10231;DHT22;62604;49.432;8.680;2022-12-20T15:23:24;11.10;90.90
10231;DHT22;62604;49.432;8.680;2022-12-20T15:25:51;11.10;90.80
10231;DHT22;62604;49.432;8.680;2022-12-20T15:28:21;11.10;90.50
10231;DHT22;62604;49.432;8.680;2022-12-20T15:30:50;11.10;90.90
10231;DHT22;62604;49.432;8.680;2022-12-20T15:33:19;11.00;91.30
10231;DHT22;62604;49.432;8.680;2022-12-20T15:35:47;10.80;92.30
10231;DHT22;62604;49.432;8.680;2022-12-20T15:38:17;10.60;92.80
10231;DHT22;62604;49.432;8.680;2022-12-20T15:40:45;10.70;92.40
10231;DHT22;62604;49.432;8.680;2022-12-20T15:43:17;10.60;93.40
10231;DHT22;62604;49.432;8.680;2022-12-20T15:45:47;10.60;92.60
10231;DHT22;62604;49.432;8.680;2022-12-20T15:48:17;10.60;92.80
10231;DHT22;62604;49.432;8.680;2022-12-20T15:50:48;10.70;92.50
10231;DHT22;62604;49.432;8.680;2022-12-20T15:53:19;10.70;92.20
10231;DHT22;62604;49.432;8.680;2022-12-20T15:55:52;10.70;92.20
10231;DHT22;62604;49.432;8.680;2022-12-20T15:58:19;10.80;92.10
10231;DHT22;62604;49.432;8.680;2022-12-20T16:00:47;10.90;92.10
10231;DHT22;62604;49.432;8.680;2022-12-20T16:03:16;10.70;92.70
10231;DHT22;62604;49.432;8.680;2022-12-20T16:05:44;10.60;93.00
10231;DHT22;62604;49.432;8.680;2022-12-20T16:08:11;10.60;92.90
10231;DHT22;62604;49.432;8.680;2022-12-20T16:10:40;10.60;92.90
10231;DHT22;62604;49.432;8.680;2022-12-20T16:13:13;10.60;93.20
10231;DHT22;62604;49.432;8.680;2022-12-20T16:15:40;10.70;92.60
10231;DHT22;62604;49.432;8.680;2022-12-20T16:18:07;10.70;92.70
10231;DHT22;62604;49.432;8.680;2022-12-20T16:20:34;10.60;93.10
10231;DHT22;62604;49.432;8.680;2022-12-20T16:23:01;10.70;92.30
10231;DHT22;62604;49.432;8.680;2022-12-20T16:25:31;10.70;92.50
10231;DHT22;62604;49.432;8.680;2022-12-20T16:28:00;10.70;92.60
10231;DHT22;62604;49.432;8.680;2022-12-20T16:30:28;10.70;93.10
10231;DHT22;62604;49.432;8.680;2022-12-20T16:32:55;10.60;93.00
10231;DHT22;62604;49.432;8.680;2022-12-20T16:35:28;10.60;93.00
10231;DHT22;62604;49.432;8.680;2022-12-20T16:37:57;10.70;93.00
10231;DHT22;62604;49.432;8.680;2022-12-20T16:40:26;10.50;93.50
10231;DHT22;62604;49.432;8.680;2022-12-20T16:42:55;10.50;93.10
10231;DHT22;62604;49.432;8.680;2022-12-20T16:45:27;10.50;93.20
10231;DHT22;62604;49.432;8.680;2022-12-20T16:47:54;10.50;93.30
10231;DHT22;62604;49.432;8.680;2022-12-20T16:50:23;10.40;93.50
10231;DHT22;62604;49.432;8.680;2022-12-20T16:52:52;10.30;94.20
10231;DHT22;62604;49.432;8.680;2022-12-20T16:55:21;10.10;94.70
10231;DHT22;62604;49.432;8.680;2022-12-20T16:57:49;10.10;95.60
10231;DHT22;62604;49.432;8.680;2022-12-20T17:00:18;10.00;95.70
10231;DHT22;62604;49.432;8.680;2022-12-20T17:02:47;9.90;97.10
10231;DHT22;62604;49.432;8.680;2022-12-20T17:05:24;9.90;97.60
10231;DHT22;62604;49.432;8.680;2022-12-20T17:07:52;9.80;97.70
10231;DHT22;62604;49.432;8.680;2022-12-20T17:10:20;9.70;98.00
10231;DHT22;62604;49.432;8.680;2022-12-20T17:12:47;9.70;98.30